Gray Court, South Carolina
Current Conditions -  °F | °C
As of 7:15 PM on Monday 22 Dec 2014 (Local Time) from KLUX Reporting Station
Drizzle Drizzle  
Wind Chill: 31°   Ceiling: 300
Heat Index: 37°   Visibility: 5mi
Dew Point: 37°   Wind: 8mph
Humidity: 100%   Direction: 40°NE
Pressure: 30.01"   Gusts: NA
Location:  34.61°N, 82.11°W
Report Text: KLUX 230015Z AUTO 04007KT 010V070 5SM -DZ OVC003 03/03 A3001 RMK AO2
Loading
Personal Weather Stations






























Interactive Weather Map New forecast layout! Learn more

10-Day Weather Forecast

Advertisements
Track Severe Weather on mobile